sensor_id;sensor_type;location;lat;lon;timestamp;temperature;humidity
31819;DHT22;18384;48.860;9.188;2024-01-16T00:01:59;2.50;90.80
31819;DHT22;18384;48.860;9.188;2024-01-16T00:04:25;2.50;90.70
31819;DHT22;18384;48.860;9.188;2024-01-16T00:06:52;2.40;90.80
31819;DHT22;18384;48.860;9.188;2024-01-16T00:09:18;2.40;90.80
31819;DHT22;18384;48.860;9.188;2024-01-16T00:11:44;2.40;91.00
31819;DHT22;18384;48.860;9.188;2024-01-16T00:14:10;2.40;91.10
31819;DHT22;18384;48.860;9.188;2024-01-16T00:16:42;2.40;90.60
31819;DHT22;18384;48.860;9.188;2024-01-16T00:19:09;2.30;91.00
31819;DHT22;18384;48.860;9.188;2024-01-16T00:21:42;2.30;91.10
31819;DHT22;18384;48.860;9.188;2024-01-16T00:24:10;2.30;90.90
31819;DHT22;18384;48.860;9.188;2024-01-16T00:26:36;2.20;90.90
31819;DHT22;18384;48.860;9.188;2024-01-16T00:29:03;2.20;90.90
31819;DHT22;18384;48.860;9.188;2024-01-16T00:31:28;2.10;91.10
31819;DHT22;18384;48.860;9.188;2024-01-16T00:33:54;2.00;91.20
31819;DHT22;18384;48.860;9.188;2024-01-16T00:36:20;2.10;91.10
31819;DHT22;18384;48.860;9.188;2024-01-16T00:38:46;2.00;91.40
31819;DHT22;18384;48.860;9.188;2024-01-16T00:41:12;2.00;91.30
31819;DHT22;18384;48.860;9.188;2024-01-16T00:43:42;2.00;91.30
31819;DHT22;18384;48.860;9.188;2024-01-16T00:46:08;2.00;91.30
31819;DHT22;18384;48.860;9.188;2024-01-16T00:48:34;2.00;91.30
31819;DHT22;18384;48.860;9.188;2024-01-16T00:51:00;2.00;91.10
31819;DHT22;18384;48.860;9.188;2024-01-16T00:53:26;2.00;91.40
31819;DHT22;18384;48.860;9.188;2024-01-16T00:55:53;1.90;91.40
31819;DHT22;18384;48.860;9.188;2024-01-16T00:58:20;1.90;91.40
31819;DHT22;18384;48.860;9.188;2024-01-16T01:00:49;1.80;91.40
31819;DHT22;18384;48.860;9.188;2024-01-16T01:03:15;1.80;91.50
31819;DHT22;18384;48.860;9.188;2024-01-16T01:05:41;1.90;91.50
31819;DHT22;18384;48.860;9.188;2024-01-16T01:08:07;1.90;91.40
31819;DHT22;18384;48.860;9.188;2024-01-16T01:10:33;1.90;91.50
31819;DHT22;18384;48.860;9.188;2024-01-16T01:12:59;2.00;91.50
31819;DHT22;18384;48.860;9.188;2024-01-16T01:15:25;1.90;91.70
31819;DHT22;18384;48.860;9.188;2024-01-16T01:17:51;2.00;91.70
31819;DHT22;18384;48.860;9.188;2024-01-16T01:20:17;2.00;91.60
31819;DHT22;18384;48.860;9.188;2024-01-16T01:22:44;1.90;91.70
31819;DHT22;18384;48.860;9.188;2024-01-16T01:25:10;1.90;91.80
31819;DHT22;18384;48.860;9.188;2024-01-16T01:27:37;1.90;91.90
31819;DHT22;18384;48.860;9.188;2024-01-16T01:30:06;1.90;91.70
31819;DHT22;18384;48.860;9.188;2024-01-16T01:32:35;1.80;91.80
31819;DHT22;18384;48.860;9.188;2024-01-16T01:35:01;1.90;92.00
31819;DHT22;18384;48.860;9.188;2024-01-16T01:37:26;1.80;91.80
31819;DHT22;18384;48.860;9.188;2024-01-16T01:39:52;1.90;92.00
31819;DHT22;18384;48.860;9.188;2024-01-16T01:42:18;1.90;91.80
31819;DHT22;18384;48.860;9.188;2024-01-16T01:44:44;1.80;91.80
31819;DHT22;18384;48.860;9.188;2024-01-16T01:47:10;1.80;91.90
31819;DHT22;18384;48.860;9.188;2024-01-16T01:49:36;1.80;92.00
31819;DHT22;18384;48.860;9.188;2024-01-16T01:52:03;1.80;91.90
31819;DHT22;18384;48.860;9.188;2024-01-16T01:54:30;1.80;92.10
31819;DHT22;18384;48.860;9.188;2024-01-16T01:56:57;1.70;91.90
31819;DHT22;18384;48.860;9.188;2024-01-16T01:59:23;1.70;91.90
31819;DHT22;18384;48.860;9.188;2024-01-16T02:01:50;1.70;92.10
31819;DHT22;18384;48.860;9.188;2024-01-16T02:04:18;1.70;91.90
31819;DHT22;18384;48.860;9.188;2024-01-16T02:06:45;1.80;91.90
31819;DHT22;18384;48.860;9.188;2024-01-16T02:09:11;1.80;92.00
31819;DHT22;18384;48.860;9.188;2024-01-16T02:11:39;1.80;91.90
31819;DHT22;18384;48.860;9.188;2024-01-16T02:14:05;1.80;91.90
31819;DHT22;18384;48.860;9.188;2024-01-16T02:30:06;1.70;92.00
31819;DHT22;18384;48.860;9.188;2024-01-16T02:32:32;1.70;92.00
31819;DHT22;18384;48.860;9.188;2024-01-16T02:34:58;1.60;92.00
31819;DHT22;18384;48.860;9.188;2024-01-16T02:37:24;1.60;92.20
31819;DHT22;18384;48.860;9.188;2024-01-16T02:39:51;1.60;92.30
31819;DHT22;18384;48.860;9.188;2024-01-16T02:42:16;1.70;92.20
31819;DHT22;18384;48.860;9.188;2024-01-16T02:44:42;1.70;92.30
31819;DHT22;18384;48.860;9.188;2024-01-16T02:47:08;1.70;92.00
31819;DHT22;18384;48.860;9.188;2024-01-16T02:49:34;1.70;92.20
31819;DHT22;18384;48.860;9.188;2024-01-16T02:52:02;1.60;92.10
31819;DHT22;18384;48.860;9.188;2024-01-16T02:54:28;1.70;92.20
31819;DHT22;18384;48.860;9.188;2024-01-16T02:56:54;1.60;92.20
31819;DHT22;18384;48.860;9.188;2024-01-16T02:59:20;1.70;92.30
31819;DHT22;18384;48.860;9.188;2024-01-16T03:01:46;1.70;92.20
31819;DHT22;18384;48.860;9.188;2024-01-16T03:04:12;1.70;92.20
31819;DHT22;18384;48.860;9.188;2024-01-16T03:06:38;1.60;92.10
31819;DHT22;18384;48.860;9.188;2024-01-16T03:09:04;1.70;92.10
31819;DHT22;18384;48.860;9.188;2024-01-16T03:11:30;1.60;92.20
31819;DHT22;18384;48.860;9.188;2024-01-16T03:13:58;1.60;92.30
31819;DHT22;18384;48.860;9.188;2024-01-16T03:16:24;1.60;92.20
31819;DHT22;18384;48.860;9.188;2024-01-16T03:18:50;1.60;92.10
31819;DHT22;18384;48.860;9.188;2024-01-16T03:21:17;1.60;92.10
31819;DHT22;18384;48.860;9.188;2024-01-16T03:23:43;1.60;92.00
31819;DHT22;18384;48.860;9.188;2024-01-16T03:26:13;1.60;92.20
31819;DHT22;18384;48.860;9.188;2024-01-16T03:28:39;1.60;92.30
31819;DHT22;18384;48.860;9.188;2024-01-16T03:31:05;1.60;92.20
31819;DHT22;18384;48.860;9.188;2024-01-16T03:33:31;1.60;92.30
31819;DHT22;18384;48.860;9.188;2024-01-16T03:35:59;1.60;92.50
31819;DHT22;18384;48.860;9.188;2024-01-16T03:38:27;1.60;92.20
31819;DHT22;18384;48.860;9.188;2024-01-16T03:40:53;1.60;92.10
31819;DHT22;18384;48.860;9.188;2024-01-16T03:43:19;1.60;92.10
31819;DHT22;18384;48.860;9.188;2024-01-16T03:45:45;1.70;92.00
31819;DHT22;18384;48.860;9.188;2024-01-16T03:48:10;1.60;92.10
31819;DHT22;18384;48.860;9.188;2024-01-16T03:50:36;1.60;92.00
31819;DHT22;18384;48.860;9.188;2024-01-16T03:53:02;1.60;91.90
31819;DHT22;18384;48.860;9.188;2024-01-16T03:55:31;1.60;91.90
31819;DHT22;18384;48.860;9.188;2024-01-16T03:57:57;1.50;91.70
31819;DHT22;18384;48.860;9.188;2024-01-16T04:00:23;1.50;92.00
31819;DHT22;18384;48.860;9.188;2024-01-16T04:02:50;1.40;91.90
31819;DHT22;18384;48.860;9.188;2024-01-16T04:05:16;1.40;91.90
31819;DHT22;18384;48.860;9.188;2024-01-16T04:07:42;1.40;92.00
31819;DHT22;18384;48.860;9.188;2024-01-16T04:10:08;1.30;92.00
31819;DHT22;18384;48.860;9.188;2024-01-16T04:12:34;1.30;92.10
31819;DHT22;18384;48.860;9.188;2024-01-16T04:15:00;1.30;91.90
31819;DHT22;18384;48.860;9.188;2024-01-16T04:17:26;0.70;91.80
31819;DHT22;18384;48.860;9.188;2024-01-16T04:19:52;1.30;91.80
31819;DHT22;18384;48.860;9.188;2024-01-16T04:22:18;1.30;91.80
31819;DHT22;18384;48.860;9.188;2024-01-16T04:24:44;1.30;91.90
31819;DHT22;18384;48.860;9.188;2024-01-16T04:27:10;1.30;91.90
31819;DHT22;18384;48.860;9.188;2024-01-16T04:29:37;1.30;92.00
31819;DHT22;18384;48.860;9.188;2024-01-16T04:32:03;1.30;91.80
31819;DHT22;18384;48.860;9.188;2024-01-16T04:34:29;1.20;91.90
31819;DHT22;18384;48.860;9.188;2024-01-16T04:36:55;2.30;92.10
31819;DHT22;18384;48.860;9.188;2024-01-16T04:39:21;1.30;91.90
31819;DHT22;18384;48.860;9.188;2024-01-16T04:41:49;1.10;91.90
31819;DHT22;18384;48.860;9.188;2024-01-16T04:44:15;1.00;92.00
31819;DHT22;18384;48.860;9.188;2024-01-16T04:46:41;1.00;92.10
31819;DHT22;18384;48.860;9.188;2024-01-16T04:49:08;1.00;92.10
31819;DHT22;18384;48.860;9.188;2024-01-16T04:51:34;1.00;92.00
31819;DHT22;18384;48.860;9.188;2024-01-16T04:54:00;1.00;91.90
31819;DHT22;18384;48.860;9.188;2024-01-16T04:56:26;1.00;92.00
31819;DHT22;18384;48.860;9.188;2024-01-16T04:58:52;1.10;91.90
31819;DHT22;18384;48.860;9.188;2024-01-16T05:01:18;1.10;91.90
31819;DHT22;18384;48.860;9.188;2024-01-16T05:03:44;1.10;91.90
31819;DHT22;18384;48.860;9.188;2024-01-16T05:06:13;1.10;91.80
31819;DHT22;18384;48.860;9.188;2024-01-16T05:08:40;1.10;91.90
31819;DHT22;18384;48.860;9.188;2024-01-16T05:11:06;1.10;91.70
31819;DHT22;18384;48.860;9.188;2024-01-16T05:13:33;1.10;92.00
31819;DHT22;18384;48.860;9.188;2024-01-16T05:15:59;1.10;91.80
31819;DHT22;18384;48.860;9.188;2024-01-16T05:18:24;1.20;91.70
31819;DHT22;18384;48.860;9.188;2024-01-16T05:20:50;1.10;91.60
31819;DHT22;18384;48.860;9.188;2024-01-16T05:23:16;1.20;91.70
31819;DHT22;18384;48.860;9.188;2024-01-16T05:25:43;1.20;91.70
31819;DHT22;18384;48.860;9.188;2024-01-16T05:28:09;1.10;91.50
31819;DHT22;18384;48.860;9.188;2024-01-16T05:30:35;1.20;91.60
31819;DHT22;18384;48.860;9.188;2024-01-16T05:33:01;1.20;91.50
31819;DHT22;18384;48.860;9.188;2024-01-16T05:35:27;1.00;91.40
31819;DHT22;18384;48.860;9.188;2024-01-16T05:37:54;0.90;91.80
31819;DHT22;18384;48.860;9.188;2024-01-16T05:40:20;1.00;92.00
31819;DHT22;18384;48.860;9.188;2024-01-16T05:42:48;1.10;91.70
31819;DHT22;18384;48.860;9.188;2024-01-16T05:45:14;1.10;91.50
31819;DHT22;18384;48.860;9.188;2024-01-16T05:47:40;1.20;91.60
31819;DHT22;18384;48.860;9.188;2024-01-16T05:50:06;1.10;91.50
31819;DHT22;18384;48.860;9.188;2024-01-16T05:52:32;1.20;91.40
31819;DHT22;18384;48.860;9.188;2024-01-16T05:54:58;1.20;91.40
31819;DHT22;18384;48.860;9.188;2024-01-16T05:57:25;1.20;91.50
31819;DHT22;18384;48.860;9.188;2024-01-16T05:59:51;1.30;91.40
31819;DHT22;18384;48.860;9.188;2024-01-16T06:02:17;1.40;91.30
31819;DHT22;18384;48.860;9.188;2024-01-16T06:04:43;1.30;91.20
31819;DHT22;18384;48.860;9.188;2024-01-16T06:07:09;3.20;91.90
31819;DHT22;18384;48.860;9.188;2024-01-16T06:09:38;1.30;91.30
31819;DHT22;18384;48.860;9.188;2024-01-16T06:12:05;1.40;91.50
31819;DHT22;18384;48.860;9.188;2024-01-16T06:14:32;1.40;91.30
31819;DHT22;18384;48.860;9.188;2024-01-16T06:16:58;1.40;91.40
31819;DHT22;18384;48.860;9.188;2024-01-16T06:19:24;1.40;91.10
31819;DHT22;18384;48.860;9.188;2024-01-16T06:21:50;1.30;91.20
31819;DHT22;18384;48.860;9.188;2024-01-16T06:24:16;1.20;91.40
31819;DHT22;18384;48.860;9.188;2024-01-16T06:26:42;1.30;91.40
31819;DHT22;18384;48.860;9.188;2024-01-16T06:29:08;1.30;91.60
31819;DHT22;18384;48.860;9.188;2024-01-16T06:31:34;1.30;91.50
31819;DHT22;18384;48.860;9.188;2024-01-16T06:34:00;1.30;91.40
31819;DHT22;18384;48.860;9.188;2024-01-16T06:36:26;1.30;91.80
31819;DHT22;18384;48.860;9.188;2024-01-16T06:38:52;1.30;91.60
31819;DHT22;18384;48.860;9.188;2024-01-16T06:41:18;1.30;91.40
31819;DHT22;18384;48.860;9.188;2024-01-16T06:43:44;1.30;91.50
31819;DHT22;18384;48.860;9.188;2024-01-16T06:46:10;1.30;91.50
31819;DHT22;18384;48.860;9.188;2024-01-16T06:48:36;1.20;91.60
31819;DHT22;18384;48.860;9.188;2024-01-16T06:51:03;1.30;91.70
31819;DHT22;18384;48.860;9.188;2024-01-16T06:53:29;1.30;91.40
31819;DHT22;18384;48.860;9.188;2024-01-16T06:55:55;1.30;91.30
31819;DHT22;18384;48.860;9.188;2024-01-16T06:58:21;1.30;91.20
31819;DHT22;18384;48.860;9.188;2024-01-16T07:00:47;1.20;91.40
31819;DHT22;18384;48.860;9.188;2024-01-16T07:03:13;1.10;91.10
31819;DHT22;18384;48.860;9.188;2024-01-16T07:05:40;1.10;91.30
31819;DHT22;18384;48.860;9.188;2024-01-16T07:08:08;1.10;91.10
31819;DHT22;18384;48.860;9.188;2024-01-16T07:10:35;1.10;91.30
31819;DHT22;18384;48.860;9.188;2024-01-16T07:13:01;1.10;91.10
31819;DHT22;18384;48.860;9.188;2024-01-16T07:15:28;1.00;91.30
31819;DHT22;18384;48.860;9.188;2024-01-16T07:17:54;1.10;91.20
31819;DHT22;18384;48.860;9.188;2024-01-16T07:20:20;1.10;91.20
31819;DHT22;18384;48.860;9.188;2024-01-16T07:22:46;1.00;91.30
31819;DHT22;18384;48.860;9.188;2024-01-16T07:25:12;1.10;91.30
31819;DHT22;18384;48.860;9.188;2024-01-16T07:27:37;1.10;91.30
31819;DHT22;18384;48.860;9.188;2024-01-16T07:30:04;1.10;91.20
31819;DHT22;18384;48.860;9.188;2024-01-16T07:32:30;1.20;91.20
31819;DHT22;18384;48.860;9.188;2024-01-16T07:34:56;1.10;91.00
31819;DHT22;18384;48.860;9.188;2024-01-16T07:37:22;1.10;90.60
31819;DHT22;18384;48.860;9.188;2024-01-16T07:39:48;1.10;90.90
31819;DHT22;18384;48.860;9.188;2024-01-16T07:42:14;1.20;90.80
31819;DHT22;18384;48.860;9.188;2024-01-16T07:44:40;1.20;90.70
31819;DHT22;18384;48.860;9.188;2024-01-16T07:47:06;1.30;90.70
31819;DHT22;18384;48.860;9.188;2024-01-16T07:49:33;1.30;90.50
31819;DHT22;18384;48.860;9.188;2024-01-16T07:51:59;1.40;90.50
31819;DHT22;18384;48.860;9.188;2024-01-16T07:54:25;1.40;90.60
31819;DHT22;18384;48.860;9.188;2024-01-16T07:56:51;1.40;90.40
31819;DHT22;18384;48.860;9.188;2024-01-16T07:59:17;1.40;90.40
31819;DHT22;18384;48.860;9.188;2024-01-16T08:01:43;1.40;90.50
31819;DHT22;18384;48.860;9.188;2024-01-16T08:04:09;1.40;90.50
31819;DHT22;18384;48.860;9.188;2024-01-16T08:06:35;1.40;90.40
31819;DHT22;18384;48.860;9.188;2024-01-16T08:09:01;1.40;90.40
31819;DHT22;18384;48.860;9.188;2024-01-16T08:11:27;1.40;90.50
31819;DHT22;18384;48.860;9.188;2024-01-16T08:13:54;1.20;90.50
31819;DHT22;18384;48.860;9.188;2024-01-16T08:16:21;1.30;90.30
31819;DHT22;18384;48.860;9.188;2024-01-16T08:18:47;1.40;90.40
31819;DHT22;18384;48.860;9.188;2024-01-16T08:21:13;1.40;90.30
31819;DHT22;18384;48.860;9.188;2024-01-16T08:23:39;1.50;90.20
31819;DHT22;18384;48.860;9.188;2024-01-16T08:26:05;1.60;90.20
31819;DHT22;18384;48.860;9.188;2024-01-16T08:28:31;1.60;90.40
31819;DHT22;18384;48.860;9.188;2024-01-16T08:30:57;1.60;90.10
31819;DHT22;18384;48.860;9.188;2024-01-16T08:33:24;1.70;89.60
31819;DHT22;18384;48.860;9.188;2024-01-16T08:35:50;1.80;89.30
31819;DHT22;18384;48.860;9.188;2024-01-16T08:38:16;1.80;89.10
31819;DHT22;18384;48.860;9.188;2024-01-16T08:40:42;1.70;88.60
31819;DHT22;18384;48.860;9.188;2024-01-16T08:43:07;1.70;89.20
31819;DHT22;18384;48.860;9.188;2024-01-16T08:45:33;1.80;89.60
31819;DHT22;18384;48.860;9.188;2024-01-16T08:47:59;1.90;88.20
31819;DHT22;18384;48.860;9.188;2024-01-16T08:50:25;2.00;88.60
31819;DHT22;18384;48.860;9.188;2024-01-16T08:52:51;2.00;88.50
31819;DHT22;18384;48.860;9.188;2024-01-16T08:55:17;2.10;87.90
31819;DHT22;18384;48.860;9.188;2024-01-16T08:57:43;2.20;88.20
31819;DHT22;18384;48.860;9.188;2024-01-16T09:00:09;2.20;86.80
31819;DHT22;18384;48.860;9.188;2024-01-16T09:02:36;2.20;86.80
31819;DHT22;18384;48.860;9.188;2024-01-16T09:05:02;2.30;86.60
31819;DHT22;18384;48.860;9.188;2024-01-16T09:07:28;2.30;86.90
31819;DHT22;18384;48.860;9.188;2024-01-16T09:09:54;2.40;86.50
31819;DHT22;18384;48.860;9.188;2024-01-16T09:12:20;2.50;86.90
31819;DHT22;18384;48.860;9.188;2024-01-16T09:14:46;2.60;86.00
31819;DHT22;18384;48.860;9.188;2024-01-16T09:17:12;2.70;85.30
31819;DHT22;18384;48.860;9.188;2024-01-16T09:19:38;2.70;85.20
31819;DHT22;18384;48.860;9.188;2024-01-16T09:22:04;2.70;86.10
31819;DHT22;18384;48.860;9.188;2024-01-16T09:24:30;2.80;86.40
31819;DHT22;18384;48.860;9.188;2024-01-16T09:26:56;2.80;85.80
31819;DHT22;18384;48.860;9.188;2024-01-16T09:29:23;2.90;85.10
31819;DHT22;18384;48.860;9.188;2024-01-16T09:31:50;2.30;84.80
31819;DHT22;18384;48.860;9.188;2024-01-16T09:34:16;2.90;85.00
31819;DHT22;18384;48.860;9.188;2024-01-16T09:36:42;2.90;84.60
31819;DHT22;18384;48.860;9.188;2024-01-16T09:39:08;2.90;84.30
31819;DHT22;18384;48.860;9.188;2024-01-16T09:41:36;3.10;85.90
31819;DHT22;18384;48.860;9.188;2024-01-16T09:44:03;3.10;85.20
31819;DHT22;18384;48.860;9.188;2024-01-16T09:46:30;3.20;84.60
31819;DHT22;18384;48.860;9.188;2024-01-16T09:48:56;3.20;84.50
31819;DHT22;18384;48.860;9.188;2024-01-16T09:51:25;3.10;84.40
31819;DHT22;18384;48.860;9.188;2024-01-16T09:53:51;3.40;83.80
31819;DHT22;18384;48.860;9.188;2024-01-16T09:56:18;3.50;84.30
31819;DHT22;18384;48.860;9.188;2024-01-16T09:58:47;3.50;82.90
31819;DHT22;18384;48.860;9.188;2024-01-16T10:01:14;3.60;83.00
31819;DHT22;18384;48.860;9.188;2024-01-16T10:03:43;3.60;82.90
31819;DHT22;18384;48.860;9.188;2024-01-16T10:06:10;3.60;82.90
31819;DHT22;18384;48.860;9.188;2024-01-16T10:08:36;3.70;82.30
31819;DHT22;18384;48.860;9.188;2024-01-16T10:11:02;3.70;82.70
31819;DHT22;18384;48.860;9.188;2024-01-16T10:13:29;3.80;82.20
31819;DHT22;18384;48.860;9.188;2024-01-16T10:15:55;3.90;82.90
31819;DHT22;18384;48.860;9.188;2024-01-16T10:18:24;4.00;82.80
31819;DHT22;18384;48.860;9.188;2024-01-16T10:20:51;3.90;81.60
31819;DHT22;18384;48.860;9.188;2024-01-16T10:23:30;3.80;82.20
31819;DHT22;18384;48.860;9.188;2024-01-16T10:26:06;3.90;82.30
31819;DHT22;18384;48.860;9.188;2024-01-16T10:28:41;3.80;82.20
31819;DHT22;18384;48.860;9.188;2024-01-16T10:31:08;3.80;83.00
31819;DHT22;18384;48.860;9.188;2024-01-16T10:33:35;3.80;82.40
31819;DHT22;18384;48.860;9.188;2024-01-16T10:36:14;3.80;82.40
31819;DHT22;18384;48.860;9.188;2024-01-16T10:38:45;3.80;82.40
31819;DHT22;18384;48.860;9.188;2024-01-16T10:41:12;3.80;82.50
31819;DHT22;18384;48.860;9.188;2024-01-16T10:43:38;3.90;82.80
31819;DHT22;18384;48.860;9.188;2024-01-16T10:46:11;4.00;82.60
31819;DHT22;18384;48.860;9.188;2024-01-16T10:48:42;4.10;81.90
31819;DHT22;18384;48.860;9.188;2024-01-16T10:51:15;4.10;81.80
31819;DHT22;18384;48.860;9.188;2024-01-16T10:53:41;4.20;82.40
31819;DHT22;18384;48.860;9.188;2024-01-16T10:56:10;4.30;80.00
31819;DHT22;18384;48.860;9.188;2024-01-16T10:58:36;4.40;79.90
31819;DHT22;18384;48.860;9.188;2024-01-16T11:01:10;4.50;79.90
31819;DHT22;18384;48.860;9.188;2024-01-16T11:03:38;4.70;79.50
31819;DHT22;18384;48.860;9.188;2024-01-16T11:06:16;4.70;80.40
31819;DHT22;18384;48.860;9.188;2024-01-16T11:08:42;4.90;80.00
31819;DHT22;18384;48.860;9.188;2024-01-16T11:11:11;5.00;80.20
31819;DHT22;18384;48.860;9.188;2024-01-16T11:13:38;5.10;79.80
31819;DHT22;18384;48.860;9.188;2024-01-16T11:16:06;5.20;79.20
31819;DHT22;18384;48.860;9.188;2024-01-16T11:18:34;5.10;79.00
31819;DHT22;18384;48.860;9.188;2024-01-16T11:21:04;5.10;79.60
31819;DHT22;18384;48.860;9.188;2024-01-16T11:23:31;5.10;80.00
31819;DHT22;18384;48.860;9.188;2024-01-16T11:25:57;5.10;80.00
31819;DHT22;18384;48.860;9.188;2024-01-16T11:28:27;5.10;80.40
31819;DHT22;18384;48.860;9.188;2024-01-16T11:30:56;5.10;80.20
31819;DHT22;18384;48.860;9.188;2024-01-16T11:37:34;5.00;79.60
31819;DHT22;18384;48.860;9.188;2024-01-16T11:40:21;5.00;79.60
31819;DHT22;18384;48.860;9.188;2024-01-16T11:42:47;5.10;79.50
31819;DHT22;18384;48.860;9.188;2024-01-16T11:45:47;5.10;78.70
31819;DHT22;18384;48.860;9.188;2024-01-16T11:48:14;5.00;78.70
31819;DHT22;18384;48.860;9.188;2024-01-16T11:50:43;5.10;79.30
31819;DHT22;18384;48.860;9.188;2024-01-16T11:53:09;5.00;79.00
31819;DHT22;18384;48.860;9.188;2024-01-16T11:56:25;5.10;79.20
31819;DHT22;18384;48.860;9.188;2024-01-16T11:59:32;5.00;78.90
31819;DHT22;18384;48.860;9.188;2024-01-16T12:03:02;5.10;79.60
31819;DHT22;18384;48.860;9.188;2024-01-16T12:05:31;5.10;79.00
31819;DHT22;18384;48.860;9.188;2024-01-16T12:07:57;5.20;79.70
31819;DHT22;18384;48.860;9.188;2024-01-16T12:10:24;5.30;77.00
31819;DHT22;18384;48.860;9.188;2024-01-16T12:12:51;5.30;77.70
31819;DHT22;18384;48.860;9.188;2024-01-16T12:15:19;5.30;78.70
31819;DHT22;18384;48.860;9.188;2024-01-16T12:17:56;5.40;77.50
31819;DHT22;18384;48.860;9.188;2024-01-16T12:20:23;5.30;77.80
31819;DHT22;18384;48.860;9.188;2024-01-16T12:22:56;5.30;77.20
31819;DHT22;18384;48.860;9.188;2024-01-16T12:25:23;5.30;77.60
31819;DHT22;18384;48.860;9.188;2024-01-16T12:27:59;5.20;76.50
31819;DHT22;18384;48.860;9.188;2024-01-16T12:30:29;5.20;76.60
31819;DHT22;18384;48.860;9.188;2024-01-16T12:33:20;5.20;76.40
31819;DHT22;18384;48.860;9.188;2024-01-16T12:35:47;4.60;75.90
31819;DHT22;18384;48.860;9.188;2024-01-16T12:38:13;5.00;76.30
31819;DHT22;18384;48.860;9.188;2024-01-16T12:40:40;4.80;76.20
31819;DHT22;18384;48.860;9.188;2024-01-16T12:43:08;4.70;77.30
31819;DHT22;18384;48.860;9.188;2024-01-16T12:45:36;4.70;77.60
31819;DHT22;18384;48.860;9.188;2024-01-16T12:48:03;4.70;77.50
31819;DHT22;18384;48.860;9.188;2024-01-16T12:50:29;4.70;76.90
31819;DHT22;18384;48.860;9.188;2024-01-16T12:53:09;4.70;77.00
31819;DHT22;18384;48.860;9.188;2024-01-16T12:55:36;4.80;76.90
31819;DHT22;18384;48.860;9.188;2024-01-16T12:58:19;4.70;77.80
31819;DHT22;18384;48.860;9.188;2024-01-16T13:00:46;4.60;78.10
31819;DHT22;18384;48.860;9.188;2024-01-16T13:03:16;4.60;77.10
31819;DHT22;18384;48.860;9.188;2024-01-16T13:05:43;4.60;77.00
31819;DHT22;18384;48.860;9.188;2024-01-16T13:08:16;4.60;76.90
31819;DHT22;18384;48.860;9.188;2024-01-16T13:10:43;4.70;76.40
31819;DHT22;18384;48.860;9.188;2024-01-16T13:13:15;4.80;76.40
31819;DHT22;18384;48.860;9.188;2024-01-16T13:15:45;4.80;77.20
31819;DHT22;18384;48.860;9.188;2024-01-16T13:18:23;4.80;78.00
31819;DHT22;18384;48.860;9.188;2024-01-16T13:20:50;4.80;77.90
31819;DHT22;18384;48.860;9.188;2024-01-16T13:23:18;4.80;78.00
31819;DHT22;18384;48.860;9.188;2024-01-16T13:25:44;4.80;77.30
31819;DHT22;18384;48.860;9.188;2024-01-16T13:28:11;4.80;77.20
31819;DHT22;18384;48.860;9.188;2024-01-16T13:30:40;4.80;77.30
31819;DHT22;18384;48.860;9.188;2024-01-16T13:33:07;4.90;77.60
31819;DHT22;18384;48.860;9.188;2024-01-16T13:35:43;5.00;75.10
31819;DHT22;18384;48.860;9.188;2024-01-16T13:38:12;5.00;74.20
31819;DHT22;18384;48.860;9.188;2024-01-16T13:40:41;5.10;74.40
31819;DHT22;18384;48.860;9.188;2024-01-16T13:43:07;5.10;75.40
31819;DHT22;18384;48.860;9.188;2024-01-16T13:45:33;5.20;74.50
31819;DHT22;18384;48.860;9.188;2024-01-16T13:48:00;5.10;75.80
31819;DHT22;18384;48.860;9.188;2024-01-16T13:50:27;5.00;76.40
31819;DHT22;18384;48.860;9.188;2024-01-16T13:52:53;5.00;76.40
31819;DHT22;18384;48.860;9.188;2024-01-16T13:55:20;5.00;76.80
31819;DHT22;18384;48.860;9.188;2024-01-16T13:57:46;4.90;77.10
31819;DHT22;18384;48.860;9.188;2024-01-16T14:00:12;4.90;78.00
31819;DHT22;18384;48.860;9.188;2024-01-16T14:02:44;4.80;77.60
31819;DHT22;18384;48.860;9.188;2024-01-16T14:05:11;4.70;77.50
31819;DHT22;18384;48.860;9.188;2024-01-16T14:07:44;4.60;77.70
31819;DHT22;18384;48.860;9.188;2024-01-16T14:10:12;4.60;78.00
31819;DHT22;18384;48.860;9.188;2024-01-16T14:12:38;4.60;78.10
31819;DHT22;18384;48.860;9.188;2024-01-16T14:15:08;4.60;78.10
31819;DHT22;18384;48.860;9.188;2024-01-16T14:17:44;4.50;77.40
31819;DHT22;18384;48.860;9.188;2024-01-16T14:20:11;4.40;77.60
31819;DHT22;18384;48.860;9.188;2024-01-16T14:22:38;4.40;77.90
31819;DHT22;18384;48.860;9.188;2024-01-16T14:25:08;4.30;78.30
31819;DHT22;18384;48.860;9.188;2024-01-16T14:27:40;4.30;78.50
31819;DHT22;18384;48.860;9.188;2024-01-16T14:30:11;4.30;78.00
31819;DHT22;18384;48.860;9.188;2024-01-16T14:32:41;4.20;77.60
31819;DHT22;18384;48.860;9.188;2024-01-16T14:35:10;4.10;77.50
31819;DHT22;18384;48.860;9.188;2024-01-16T14:37:38;4.10;77.60
31819;DHT22;18384;48.860;9.188;2024-01-16T14:40:05;4.10;77.30
31819;DHT22;18384;48.860;9.188;2024-01-16T14:42:53;4.00;76.90
31819;DHT22;18384;48.860;9.188;2024-01-16T14:45:22;4.00;77.40
31819;DHT22;18384;48.860;9.188;2024-01-16T14:47:49;4.00;77.70
31819;DHT22;18384;48.860;9.188;2024-01-16T14:50:16;4.00;77.40
31819;DHT22;18384;48.860;9.188;2024-01-16T14:52:43;4.00;77.30
31819;DHT22;18384;48.860;9.188;2024-01-16T14:55:09;3.90;78.20
31819;DHT22;18384;48.860;9.188;2024-01-16T14:57:37;3.90;78.20
31819;DHT22;18384;48.860;9.188;2024-01-16T15:00:10;4.00;77.30
31819;DHT22;18384;48.860;9.188;2024-01-16T15:02:43;3.90;77.80
31819;DHT22;18384;48.860;9.188;2024-01-16T15:05:09;3.90;78.30
31819;DHT22;18384;48.860;9.188;2024-01-16T15:07:35;3.90;78.80
31819;DHT22;18384;48.860;9.188;2024-01-16T15:10:03;3.90;78.60
31819;DHT22;18384;48.860;9.188;2024-01-16T15:12:31;3.90;80.30
31819;DHT22;18384;48.860;9.188;2024-01-16T15:14:57;3.90;79.40
31819;DHT22;18384;48.860;9.188;2024-01-16T15:17:23;3.80;79.20
31819;DHT22;18384;48.860;9.188;2024-01-16T15:19:49;3.80;78.70
31819;DHT22;18384;48.860;9.188;2024-01-16T15:22:15;3.80;79.40
31819;DHT22;18384;48.860;9.188;2024-01-16T15:24:41;3.70;79.10
31819;DHT22;18384;48.860;9.188;2024-01-16T15:27:07;3.70;78.60
31819;DHT22;18384;48.860;9.188;2024-01-16T15:29:33;3.60;78.50
31819;DHT22;18384;48.860;9.188;2024-01-16T15:31:59;3.60;78.80
31819;DHT22;18384;48.860;9.188;2024-01-16T15:34:25;3.60;79.10
31819;DHT22;18384;48.860;9.188;2024-01-16T15:36:51;3.50;79.30
31819;DHT22;18384;48.860;9.188;2024-01-16T15:39:19;3.50;79.40
31819;DHT22;18384;48.860;9.188;2024-01-16T15:41:44;3.40;79.20
31819;DHT22;18384;48.860;9.188;2024-01-16T15:44:11;3.40;79.70
31819;DHT22;18384;48.860;9.188;2024-01-16T15:49:21;3.40;79.30
31819;DHT22;18384;48.860;9.188;2024-01-16T15:51:47;3.30;79.60
31819;DHT22;18384;48.860;9.188;2024-01-16T15:54:14;3.30;80.00
31819;DHT22;18384;48.860;9.188;2024-01-16T15:56:40;3.20;80.00
31819;DHT22;18384;48.860;9.188;2024-01-16T15:59:07;3.20;80.90
31819;DHT22;18384;48.860;9.188;2024-01-16T16:01:33;3.20;80.90
31819;DHT22;18384;48.860;9.188;2024-01-16T16:03:59;3.10;80.70
31819;DHT22;18384;48.860;9.188;2024-01-16T16:06:25;3.10;80.80
31819;DHT22;18384;48.860;9.188;2024-01-16T16:08:51;3.00;81.40